Terminal Aerodrome Forecast
Issued by NWS

Home | Current Version | Previous Version | Text Only | Print | Product List | Glossary On
Versions: 1 2 3 4 5 6 7 8 9 10 11 12 13 14 15 16 17 18 19 20 21
000
FTUS43 KBIS 260500
TAFDIK
TAF
KDIK 260537Z 2606/2706 35014G20KT P6SM OVC007
     FM261000 35009KT P6SM BKN007 OVC012
     FM261500 03007KT P6SM -SN OVC012
     FM261900 07007KT P6SM BKN025
     FM270000 12010KT 6SM -SN BR OVC010=

USA.gov is the U.S. government's official web portal to all federal, state and local government web resources and services.